sensor_id;sensor_type;location;lat;lon;timestamp;P1;durP1;ratioP1;P2;durP2;ratioP2
10687;SDS011;5392;42.688;23.298;2022-10-16T00:01:53;17.33;;;11.07;;
10687;SDS011;5392;42.688;23.298;2022-10-16T00:04:19;14.45;;;11.13;;
10687;SDS011;5392;42.688;23.298;2022-10-16T00:06:46;12.88;;;11.00;;
10687;SDS011;5392;42.688;23.298;2022-10-16T00:09:12;12.23;;;11.02;;
10687;SDS011;5392;42.688;23.298;2022-10-16T00:11:39;15.20;;;12.10;;
10687;SDS011;5392;42.688;23.298;2022-10-16T00:14:08;14.88;;;11.52;;
10687;SDS011;5392;42.688;23.298;2022-10-16T00:16:34;13.35;;;10.52;;
10687;SDS011;5392;42.688;23.298;2022-10-16T00:19:01;12.68;;;11.05;;
10687;SDS011;5392;42.688;23.298;2022-10-16T00:21:28;17.67;;;11.60;;
10687;SDS011;5392;42.688;23.298;2022-10-16T00:24:03;13.45;;;11.63;;
10687;SDS011;5392;42.688;23.298;2022-10-16T00:26:31;14.68;;;11.32;;
10687;SDS011;5392;42.688;23.298;2022-10-16T00:28:57;14.02;;;11.55;;
10687;SDS011;5392;42.688;23.298;2022-10-16T00:31:24;10.65;;;9.63;;
10687;SDS011;5392;42.688;23.298;2022-10-16T00:33:51;13.95;;;10.95;;
10687;SDS011;5392;42.688;23.298;2022-10-16T00:36:19;15.07;;;11.48;;
10687;SDS011;5392;42.688;23.298;2022-10-16T00:38:45;12.27;;;10.50;;
10687;SDS011;5392;42.688;23.298;2022-10-16T00:41:14;12.52;;;11.23;;
10687;SDS011;5392;42.688;23.298;2022-10-16T00:43:50;12.15;;;10.75;;
10687;SDS011;5392;42.688;23.298;2022-10-16T00:46:25;16.05;;;11.32;;
10687;SDS011;5392;42.688;23.298;2022-10-16T00:49:00;15.85;;;10.73;;
10687;SDS011;5392;42.688;23.298;2022-10-16T00:51:30;14.20;;;10.52;;
10687;SDS011;5392;42.688;23.298;2022-10-16T00:53:57;12.57;;;10.73;;
10687;SDS011;5392;42.688;23.298;2022-10-16T00:56:23;13.95;;;10.88;;
10687;SDS011;5392;42.688;23.298;2022-10-16T00:58:50;13.45;;;10.35;;
10687;SDS011;5392;42.688;23.298;2022-10-16T01:01:16;12.27;;;9.55;;
10687;SDS011;5392;42.688;23.298;2022-10-16T01:03:43;10.48;;;9.38;;
10687;SDS011;5392;42.688;23.298;2022-10-16T01:06:29;19.23;;;10.65;;
10687;SDS011;5392;42.688;23.298;2022-10-16T01:14:06;11.55;;;10.27;;
10687;SDS011;5392;42.688;23.298;2022-10-16T01:16:39;10.93;;;9.77;;
10687;SDS011;5392;42.688;23.298;2022-10-16T01:21:48;11.48;;;10.25;;
10687;SDS011;5392;42.688;23.298;2022-10-16T01:24:23;13.13;;;11.05;;
10687;SDS011;5392;42.688;23.298;2022-10-16T01:29:25;17.83;;;10.93;;
10687;SDS011;5392;42.688;23.298;2022-10-16T01:31:59;14.30;;;10.60;;
10687;SDS011;5392;42.688;23.298;2022-10-16T01:34:35;13.98;;;11.02;;
10687;SDS011;5392;42.688;23.298;2022-10-16T01:37:07;17.52;;;11.93;;
10687;SDS011;5392;42.688;23.298;2022-10-16T01:39:35;17.45;;;13.18;;
10687;SDS011;5392;42.688;23.298;2022-10-16T01:42:05;15.15;;;11.82;;
10687;SDS011;5392;42.688;23.298;2022-10-16T01:44:33;20.55;;;13.15;;
10687;SDS011;5392;42.688;23.298;2022-10-16T01:47:00;16.35;;;12.30;;
10687;SDS011;5392;42.688;23.298;2022-10-16T01:49:30;15.45;;;11.98;;
10687;SDS011;5392;42.688;23.298;2022-10-16T01:51:58;13.50;;;10.93;;
10687;SDS011;5392;42.688;23.298;2022-10-16T01:54:31;13.52;;;10.98;;
10687;SDS011;5392;42.688;23.298;2022-10-16T01:56:57;13.30;;;10.13;;
10687;SDS011;5392;42.688;23.298;2022-10-16T01:59:25;13.80;;;10.30;;
10687;SDS011;5392;42.688;23.298;2022-10-16T02:01:53;14.20;;;10.38;;
10687;SDS011;5392;42.688;23.298;2022-10-16T02:06:48;11.10;;;8.20;;
10687;SDS011;5392;42.688;23.298;2022-10-16T02:09:15;13.25;;;8.93;;
10687;SDS011;5392;42.688;23.298;2022-10-16T02:11:43;9.68;;;8.68;;
10687;SDS011;5392;42.688;23.298;2022-10-16T02:14:10;8.75;;;7.93;;
10687;SDS011;5392;42.688;23.298;2022-10-16T02:16:40;10.02;;;8.13;;
10687;SDS011;5392;42.688;23.298;2022-10-16T02:19:07;9.85;;;8.00;;
10687;SDS011;5392;42.688;23.298;2022-10-16T02:21:44;10.32;;;8.52;;
10687;SDS011;5392;42.688;23.298;2022-10-16T02:26:48;9.95;;;8.82;;
10687;SDS011;5392;42.688;23.298;2022-10-16T02:29:16;13.13;;;9.88;;
10687;SDS011;5392;42.688;23.298;2022-10-16T02:31:45;12.43;;;9.82;;
10687;SDS011;5392;42.688;23.298;2022-10-16T02:34:13;9.73;;;8.10;;
10687;SDS011;5392;42.688;23.298;2022-10-16T02:36:40;11.82;;;9.40;;
10687;SDS011;5392;42.688;23.298;2022-10-16T02:39:08;13.55;;;9.85;;
10687;SDS011;5392;42.688;23.298;2022-10-16T02:41:35;12.95;;;10.98;;
10687;SDS011;5392;42.688;23.298;2022-10-16T02:44:02;15.65;;;10.48;;
10687;SDS011;5392;42.688;23.298;2022-10-16T02:46:28;15.85;;;10.57;;
10687;SDS011;5392;42.688;23.298;2022-10-16T02:48:55;14.25;;;10.35;;
10687;SDS011;5392;42.688;23.298;2022-10-16T02:51:21;14.13;;;10.27;;
10687;SDS011;5392;42.688;23.298;2022-10-16T02:53:48;14.65;;;9.90;;
10687;SDS011;5392;42.688;23.298;2022-10-16T02:56:14;14.35;;;10.27;;
10687;SDS011;5392;42.688;23.298;2022-10-16T02:58:41;14.38;;;11.38;;
10687;SDS011;5392;42.688;23.298;2022-10-16T03:01:07;14.57;;;11.88;;
10687;SDS011;5392;42.688;23.298;2022-10-16T03:03:34;15.00;;;11.95;;
10687;SDS011;5392;42.688;23.298;2022-10-16T03:06:00;20.42;;;15.48;;
10687;SDS011;5392;42.688;23.298;2022-10-16T03:08:27;22.92;;;16.63;;
10687;SDS011;5392;42.688;23.298;2022-10-16T03:10:53;22.90;;;16.13;;
10687;SDS011;5392;42.688;23.298;2022-10-16T03:13:20;21.25;;;13.95;;
10687;SDS011;5392;42.688;23.298;2022-10-16T03:15:47;16.15;;;12.68;;
10687;SDS011;5392;42.688;23.298;2022-10-16T03:18:13;15.98;;;11.88;;
10687;SDS011;5392;42.688;23.298;2022-10-16T03:20:40;17.05;;;13.32;;
10687;SDS011;5392;42.688;23.298;2022-10-16T03:23:06;17.25;;;12.38;;
10687;SDS011;5392;42.688;23.298;2022-10-16T03:25:34;14.02;;;11.02;;
10687;SDS011;5392;42.688;23.298;2022-10-16T03:28:01;17.00;;;11.38;;
10687;SDS011;5392;42.688;23.298;2022-10-16T03:30:27;12.93;;;11.32;;
10687;SDS011;5392;42.688;23.298;2022-10-16T03:32:54;12.10;;;10.50;;
10687;SDS011;5392;42.688;23.298;2022-10-16T03:35:21;15.95;;;12.07;;
10687;SDS011;5392;42.688;23.298;2022-10-16T03:37:48;11.93;;;10.70;;
10687;SDS011;5392;42.688;23.298;2022-10-16T03:40:15;16.60;;;11.35;;
10687;SDS011;5392;42.688;23.298;2022-10-16T03:42:42;12.52;;;10.57;;
10687;SDS011;5392;42.688;23.298;2022-10-16T03:45:08;13.93;;;10.88;;
10687;SDS011;5392;42.688;23.298;2022-10-16T03:47:35;17.08;;;11.57;;
10687;SDS011;5392;42.688;23.298;2022-10-16T03:50:02;19.73;;;11.80;;
10687;SDS011;5392;42.688;23.298;2022-10-16T03:52:29;16.73;;;12.13;;
10687;SDS011;5392;42.688;23.298;2022-10-16T03:54:56;14.68;;;11.98;;
10687;SDS011;5392;42.688;23.298;2022-10-16T03:57:22;15.38;;;12.35;;
10687;SDS011;5392;42.688;23.298;2022-10-16T03:59:49;20.85;;;12.77;;
10687;SDS011;5392;42.688;23.298;2022-10-16T04:02:16;17.63;;;13.27;;
10687;SDS011;5392;42.688;23.298;2022-10-16T04:04:42;18.63;;;13.60;;
10687;SDS011;5392;42.688;23.298;2022-10-16T04:07:09;20.10;;;13.45;;
10687;SDS011;5392;42.688;23.298;2022-10-16T04:09:35;19.48;;;12.57;;
10687;SDS011;5392;42.688;23.298;2022-10-16T04:12:02;20.05;;;13.52;;
10687;SDS011;5392;42.688;23.298;2022-10-16T04:14:28;15.30;;;13.15;;
10687;SDS011;5392;42.688;23.298;2022-10-16T04:16:55;17.45;;;13.65;;
10687;SDS011;5392;42.688;23.298;2022-10-16T04:19:21;19.17;;;13.90;;
10687;SDS011;5392;42.688;23.298;2022-10-16T04:21:48;20.13;;;14.07;;
10687;SDS011;5392;42.688;23.298;2022-10-16T04:24:14;20.17;;;14.45;;
10687;SDS011;5392;42.688;23.298;2022-10-16T04:26:41;21.50;;;15.90;;
10687;SDS011;5392;42.688;23.298;2022-10-16T04:29:07;21.55;;;16.20;;
10687;SDS011;5392;42.688;23.298;2022-10-16T04:31:34;22.25;;;15.52;;
10687;SDS011;5392;42.688;23.298;2022-10-16T04:34:00;23.75;;;15.90;;
10687;SDS011;5392;42.688;23.298;2022-10-16T04:36:27;25.00;;;16.27;;
10687;SDS011;5392;42.688;23.298;2022-10-16T04:38:54;22.60;;;15.07;;
10687;SDS011;5392;42.688;23.298;2022-10-16T04:41:21;21.63;;;15.27;;
10687;SDS011;5392;42.688;23.298;2022-10-16T04:43:47;20.05;;;17.05;;
10687;SDS011;5392;42.688;23.298;2022-10-16T04:46:14;25.73;;;15.38;;
10687;SDS011;5392;42.688;23.298;2022-10-16T04:48:40;21.48;;;14.43;;
10687;SDS011;5392;42.688;23.298;2022-10-16T04:51:07;18.98;;;13.65;;
10687;SDS011;5392;42.688;23.298;2022-10-16T04:53:33;26.75;;;16.83;;
10687;SDS011;5392;42.688;23.298;2022-10-16T04:56:00;24.38;;;17.48;;
10687;SDS011;5392;42.688;23.298;2022-10-16T04:58:27;21.00;;;16.33;;
10687;SDS011;5392;42.688;23.298;2022-10-16T05:00:53;19.27;;;15.32;;
10687;SDS011;5392;42.688;23.298;2022-10-16T05:03:19;16.02;;;13.60;;
10687;SDS011;5392;42.688;23.298;2022-10-16T05:05:46;17.65;;;12.30;;
10687;SDS011;5392;42.688;23.298;2022-10-16T05:08:13;16.45;;;12.18;;
10687;SDS011;5392;42.688;23.298;2022-10-16T05:10:41;10.13;;;8.50;;
10687;SDS011;5392;42.688;23.298;2022-10-16T05:13:07;8.23;;;7.38;;
10687;SDS011;5392;42.688;23.298;2022-10-16T05:15:34;9.02;;;7.65;;
10687;SDS011;5392;42.688;23.298;2022-10-16T05:18:00;13.13;;;8.65;;
10687;SDS011;5392;42.688;23.298;2022-10-16T05:20:27;7.28;;;6.53;;
10687;SDS011;5392;42.688;23.298;2022-10-16T05:22:53;10.27;;;6.82;;
10687;SDS011;5392;42.688;23.298;2022-10-16T05:25:20;6.10;;;5.40;;
10687;SDS011;5392;42.688;23.298;2022-10-16T05:27:47;6.35;;;5.68;;
10687;SDS011;5392;42.688;23.298;2022-10-16T05:30:14;5.07;;;4.65;;
10687;SDS011;5392;42.688;23.298;2022-10-16T05:32:41;5.97;;;4.70;;
10687;SDS011;5392;42.688;23.298;2022-10-16T05:35:08;7.47;;;5.03;;
10687;SDS011;5392;42.688;23.298;2022-10-16T05:37:37;12.10;;;6.47;;
10687;SDS011;5392;42.688;23.298;2022-10-16T05:40:04;6.22;;;5.43;;
10687;SDS011;5392;42.688;23.298;2022-10-16T05:42:31;5.95;;;5.35;;
10687;SDS011;5392;42.688;23.298;2022-10-16T05:44:57;8.40;;;5.85;;
10687;SDS011;5392;42.688;23.298;2022-10-16T05:47:24;5.88;;;5.20;;
10687;SDS011;5392;42.688;23.298;2022-10-16T05:49:51;5.75;;;4.90;;
10687;SDS011;5392;42.688;23.298;2022-10-16T05:52:17;6.13;;;5.10;;
10687;SDS011;5392;42.688;23.298;2022-10-16T05:54:44;8.93;;;5.63;;
10687;SDS011;5392;42.688;23.298;2022-10-16T05:57:10;7.80;;;5.72;;
10687;SDS011;5392;42.688;23.298;2022-10-16T05:59:37;6.22;;;5.72;;
10687;SDS011;5392;42.688;23.298;2022-10-16T06:02:04;7.65;;;6.03;;
10687;SDS011;5392;42.688;23.298;2022-10-16T06:04:30;7.85;;;5.50;;
10687;SDS011;5392;42.688;23.298;2022-10-16T06:07:00;10.65;;;6.55;;
10687;SDS011;5392;42.688;23.298;2022-10-16T06:09:29;6.20;;;5.60;;
10687;SDS011;5392;42.688;23.298;2022-10-16T06:11:56;6.95;;;5.78;;
10687;SDS011;5392;42.688;23.298;2022-10-16T06:14:22;7.78;;;6.15;;
10687;SDS011;5392;42.688;23.298;2022-10-16T06:16:49;13.18;;;6.18;;
10687;SDS011;5392;42.688;23.298;2022-10-16T06:19:15;10.75;;;5.70;;
10687;SDS011;5392;42.688;23.298;2022-10-16T06:21:42;9.57;;;6.53;;
10687;SDS011;5392;42.688;23.298;2022-10-16T06:24:09;7.85;;;6.07;;
10687;SDS011;5392;42.688;23.298;2022-10-16T06:26:35;6.68;;;5.43;;
10687;SDS011;5392;42.688;23.298;2022-10-16T06:29:03;5.80;;;5.30;;
10687;SDS011;5392;42.688;23.298;2022-10-16T06:31:29;7.95;;;6.18;;
10687;SDS011;5392;42.688;23.298;2022-10-16T06:33:59;7.07;;;6.13;;
10687;SDS011;5392;42.688;23.298;2022-10-16T06:36:26;7.65;;;5.35;;
10687;SDS011;5392;42.688;23.298;2022-10-16T06:38:53;6.82;;;5.60;;
10687;SDS011;5392;42.688;23.298;2022-10-16T06:41:21;7.57;;;5.53;;
10687;SDS011;5392;42.688;23.298;2022-10-16T06:43:48;6.32;;;5.80;;
10687;SDS011;5392;42.688;23.298;2022-10-16T06:46:16;11.48;;;6.07;;
10687;SDS011;5392;42.688;23.298;2022-10-16T06:48:42;10.43;;;5.28;;
10687;SDS011;5392;42.688;23.298;2022-10-16T06:51:10;9.60;;;6.10;;
10687;SDS011;5392;42.688;23.298;2022-10-16T06:53:38;7.32;;;5.72;;
10687;SDS011;5392;42.688;23.298;2022-10-16T06:56:25;10.05;;;5.93;;
10687;SDS011;5392;42.688;23.298;2022-10-16T06:58:52;5.75;;;5.20;;
10687;SDS011;5392;42.688;23.298;2022-10-16T07:01:20;5.25;;;4.75;;
10687;SDS011;5392;42.688;23.298;2022-10-16T07:03:47;5.55;;;4.80;;
10687;SDS011;5392;42.688;23.298;2022-10-16T07:06:14;7.30;;;5.80;;
10687;SDS011;5392;42.688;23.298;2022-10-16T07:08:42;6.40;;;5.13;;
10687;SDS011;5392;42.688;23.298;2022-10-16T07:11:10;6.13;;;5.53;;
10687;SDS011;5392;42.688;23.298;2022-10-16T07:13:37;6.30;;;5.75;;
10687;SDS011;5392;42.688;23.298;2022-10-16T07:16:23;6.78;;;6.22;;
10687;SDS011;5392;42.688;23.298;2022-10-16T07:18:49;9.27;;;6.38;;
10687;SDS011;5392;42.688;23.298;2022-10-16T07:21:21;8.05;;;6.40;;
10687;SDS011;5392;42.688;23.298;2022-10-16T07:23:52;7.05;;;6.35;;
10687;SDS011;5392;42.688;23.298;2022-10-16T07:26:18;7.78;;;6.97;;
10687;SDS011;5392;42.688;23.298;2022-10-16T07:28:45;7.32;;;6.70;;
10687;SDS011;5392;42.688;23.298;2022-10-16T07:31:12;6.95;;;6.43;;
10687;SDS011;5392;42.688;23.298;2022-10-16T07:33:40;7.63;;;6.97;;
10687;SDS011;5392;42.688;23.298;2022-10-16T07:36:08;10.15;;;7.30;;
10687;SDS011;5392;42.688;23.298;2022-10-16T07:38:40;9.90;;;7.97;;
10687;SDS011;5392;42.688;23.298;2022-10-16T07:41:10;11.30;;;8.00;;
10687;SDS011;5392;42.688;23.298;2022-10-16T07:43:36;8.63;;;7.45;;
10687;SDS011;5392;42.688;23.298;2022-10-16T07:46:03;8.40;;;7.60;;
10687;SDS011;5392;42.688;23.298;2022-10-16T07:48:33;11.07;;;7.57;;
10687;SDS011;5392;42.688;23.298;2022-10-16T07:51:00;15.23;;;7.57;;
10687;SDS011;5392;42.688;23.298;2022-10-16T07:53:27;8.75;;;8.05;;
10687;SDS011;5392;42.688;23.298;2022-10-16T07:56:01;8.02;;;7.35;;
10687;SDS011;5392;42.688;23.298;2022-10-16T07:58:27;8.23;;;7.40;;
10687;SDS011;5392;42.688;23.298;2022-10-16T08:00:54;12.55;;;8.30;;
10687;SDS011;5392;42.688;23.298;2022-10-16T08:03:21;8.73;;;7.88;;
10687;SDS011;5392;42.688;23.298;2022-10-16T08:05:47;11.27;;;9.00;;
10687;SDS011;5392;42.688;23.298;2022-10-16T08:08:14;6.22;;;5.40;;
10687;SDS011;5392;42.688;23.298;2022-10-16T08:10:41;7.88;;;5.35;;
10687;SDS011;5392;42.688;23.298;2022-10-16T08:13:08;5.57;;;5.07;;
10687;SDS011;5392;42.688;23.298;2022-10-16T08:15:34;6.03;;;5.43;;
10687;SDS011;5392;42.688;23.298;2022-10-16T08:18:02;5.90;;;5.20;;
10687;SDS011;5392;42.688;23.298;2022-10-16T08:20:29;10.48;;;4.90;;
10687;SDS011;5392;42.688;23.298;2022-10-16T08:22:56;5.07;;;4.68;;
10687;SDS011;5392;42.688;23.298;2022-10-16T08:25:23;5.38;;;4.90;;
10687;SDS011;5392;42.688;23.298;2022-10-16T08:27:49;5.07;;;4.68;;
10687;SDS011;5392;42.688;23.298;2022-10-16T08:30:17;4.18;;;3.88;;
10687;SDS011;5392;42.688;23.298;2022-10-16T08:32:44;4.47;;;4.28;;
10687;SDS011;5392;42.688;23.298;2022-10-16T08:35:11;4.28;;;4.07;;
10687;SDS011;5392;42.688;23.298;2022-10-16T08:37:38;4.00;;;3.60;;
10687;SDS011;5392;42.688;23.298;2022-10-16T08:40:05;5.05;;;3.47;;
10687;SDS011;5392;42.688;23.298;2022-10-16T08:47:45;3.15;;;2.72;;
10687;SDS011;5392;42.688;23.298;2022-10-16T08:50:14;3.13;;;2.55;;
10687;SDS011;5392;42.688;23.298;2022-10-16T08:52:43;3.67;;;2.20;;
10687;SDS011;5392;42.688;23.298;2022-10-16T08:58:23;5.10;;;2.25;;
10687;SDS011;5392;42.688;23.298;2022-10-16T09:01:00;1.80;;;1.70;;
10687;SDS011;5392;42.688;23.298;2022-10-16T09:03:38;1.48;;;1.30;;
10687;SDS011;5392;42.688;23.298;2022-10-16T09:14:01;2.75;;;1.13;;
10687;SDS011;5392;42.688;23.298;2022-10-16T09:16:37;1.20;;;0.90;;
10687;SDS011;5392;42.688;23.298;2022-10-16T09:19:18;1.58;;;1.13;;
10687;SDS011;5392;42.688;23.298;2022-10-16T09:21:46;2.65;;;1.20;;
10687;SDS011;5392;42.688;23.298;2022-10-16T09:24:18;2.78;;;1.60;;
10687;SDS011;5392;42.688;23.298;2022-10-16T09:26:45;1.05;;;0.80;;
10687;SDS011;5392;42.688;23.298;2022-10-16T09:29:12;0.80;;;0.80;;
10687;SDS011;5392;42.688;23.298;2022-10-16T09:31:39;1.50;;;1.05;;
10687;SDS011;5392;42.688;23.298;2022-10-16T09:34:06;1.98;;;1.08;;
10687;SDS011;5392;42.688;23.298;2022-10-16T09:36:40;1.33;;;0.73;;
10687;SDS011;5392;42.688;23.298;2022-10-16T09:39:08;1.67;;;1.00;;
10687;SDS011;5392;42.688;23.298;2022-10-16T09:41:35;2.30;;;1.40;;
10687;SDS011;5392;42.688;23.298;2022-10-16T09:44:03;1.90;;;1.25;;
10687;SDS011;5392;42.688;23.298;2022-10-16T09:46:34;2.67;;;1.00;;
10687;SDS011;5392;42.688;23.298;2022-10-16T09:49:16;1.05;;;0.70;;
10687;SDS011;5392;42.688;23.298;2022-10-16T09:51:45;0.85;;;0.85;;
10687;SDS011;5392;42.688;23.298;2022-10-16T09:54:15;2.00;;;1.08;;
10687;SDS011;5392;42.688;23.298;2022-10-16T09:56:42;0.85;;;0.82;;
10687;SDS011;5392;42.688;23.298;2022-10-16T09:59:12;1.30;;;0.70;;
10687;SDS011;5392;42.688;23.298;2022-10-16T10:01:40;0.80;;;0.80;;
10687;SDS011;5392;42.688;23.298;2022-10-16T10:04:08;1.10;;;1.00;;
10687;SDS011;5392;42.688;23.298;2022-10-16T10:06:47;1.17;;;1.08;;
10687;SDS011;5392;42.688;23.298;2022-10-16T10:09:21;0.77;;;0.77;;
10687;SDS011;5392;42.688;23.298;2022-10-16T10:14:37;1.77;;;0.80;;
10687;SDS011;5392;42.688;23.298;2022-10-16T10:19:38;0.93;;;0.93;;
10687;SDS011;5392;42.688;23.298;2022-10-16T10:22:17;3.30;;;0.93;;
10687;SDS011;5392;42.688;23.298;2022-10-16T10:24:54;0.90;;;0.90;;
10687;SDS011;5392;42.688;23.298;2022-10-16T10:27:21;0.75;;;0.60;;
10687;SDS011;5392;42.688;23.298;2022-10-16T10:30:01;1.23;;;0.77;;
10687;SDS011;5392;42.688;23.298;2022-10-16T10:35:17;1.70;;;0.90;;
10687;SDS011;5392;42.688;23.298;2022-10-16T10:45:33;0.77;;;0.70;;
10687;SDS011;5392;42.688;23.298;2022-10-16T10:50:57;1.55;;;0.95;;
10687;SDS011;5392;42.688;23.298;2022-10-16T10:58:54;1.08;;;0.77;;
10687;SDS011;5392;42.688;23.298;2022-10-16T11:01:30;1.05;;;0.68;;
10687;SDS011;5392;42.688;23.298;2022-10-16T11:04:03;2.88;;;0.95;;
10687;SDS011;5392;42.688;23.298;2022-10-16T11:11:50;1.90;;;0.60;;
10687;SDS011;5392;42.688;23.298;2022-10-16T11:14:20;0.73;;;0.73;;
10687;SDS011;5392;42.688;23.298;2022-10-16T11:16:51;0.60;;;0.60;;
10687;SDS011;5392;42.688;23.298;2022-10-16T11:19:37;1.30;;;0.68;;
10687;SDS011;5392;42.688;23.298;2022-10-16T11:27:17;0.63;;;0.63;;
10687;SDS011;5392;42.688;23.298;2022-10-16T11:29:51;1.05;;;0.90;;
10687;SDS011;5392;42.688;23.298;2022-10-16T11:32:28;0.95;;;0.60;;
10687;SDS011;5392;42.688;23.298;2022-10-16T11:35:00;2.30;;;0.60;;
10687;SDS011;5392;42.688;23.298;2022-10-16T11:37:32;1.10;;;0.60;;
10687;SDS011;5392;42.688;23.298;2022-10-16T11:40:03;1.73;;;0.60;;
10687;SDS011;5392;42.688;23.298;2022-10-16T11:42:33;0.60;;;0.60;;
10687;SDS011;5392;42.688;23.298;2022-10-16T11:55:48;1.25;;;0.70;;
10687;SDS011;5392;42.688;23.298;2022-10-16T12:00:58;0.60;;;0.50;;
10687;SDS011;5392;42.688;23.298;2022-10-16T12:05:55;0.60;;;0.60;;
10687;SDS011;5392;42.688;23.298;2022-10-16T12:08:24;0.73;;;0.50;;
10687;SDS011;5392;42.688;23.298;2022-10-16T12:10:51;0.68;;;0.68;;
10687;SDS011;5392;42.688;23.298;2022-10-16T12:13:35;0.90;;;0.60;;
10687;SDS011;5392;42.688;23.298;2022-10-16T12:18:42;0.75;;;0.70;;
10687;SDS011;5392;42.688;23.298;2022-10-16T12:21:10;1.25;;;0.65;;
10687;SDS011;5392;42.688;23.298;2022-10-16T12:23:37;0.85;;;0.70;;
10687;SDS011;5392;42.688;23.298;2022-10-16T12:26:04;0.70;;;0.70;;
10687;SDS011;5392;42.688;23.298;2022-10-16T12:28:32;2.35;;;0.70;;
10687;SDS011;5392;42.688;23.298;2022-10-16T12:33:29;2.28;;;0.60;;
10687;SDS011;5392;42.688;23.298;2022-10-16T12:35:57;1.88;;;0.60;;
10687;SDS011;5392;42.688;23.298;2022-10-16T12:38:28;0.73;;;0.55;;
10687;SDS011;5392;42.688;23.298;2022-10-16T12:41:04;0.60;;;0.60;;
10687;SDS011;5392;42.688;23.298;2022-10-16T12:46:02;0.60;;;0.60;;
10687;SDS011;5392;42.688;23.298;2022-10-16T12:48:28;0.50;;;0.50;;
10687;SDS011;5392;42.688;23.298;2022-10-16T12:56:34;0.77;;;0.70;;
10687;SDS011;5392;42.688;23.298;2022-10-16T12:59:14;0.98;;;0.60;;
10687;SDS011;5392;42.688;23.298;2022-10-16T13:06:57;0.60;;;0.60;;
10687;SDS011;5392;42.688;23.298;2022-10-16T13:09:32;1.05;;;0.70;;
10687;SDS011;5392;42.688;23.298;2022-10-16T13:23:12;0.60;;;0.60;;
10687;SDS011;5392;42.688;23.298;2022-10-16T13:27:56;28.60;;;10.05;;
10687;SDS011;5392;42.688;23.298;2022-10-16T13:30:29;33.28;;;9.82;;
10687;SDS011;5392;42.688;23.298;2022-10-16T13:33:01;22.90;;;8.07;;
10687;SDS011;5392;42.688;23.298;2022-10-16T13:35:29;13.68;;;3.80;;
10687;SDS011;5392;42.688;23.298;2022-10-16T13:38:05;1.75;;;0.60;;
10687;SDS011;5392;42.688;23.298;2022-10-16T13:40:32;2.70;;;1.05;;
10687;SDS011;5392;42.688;23.298;2022-10-16T13:43:00;1.90;;;0.52;;
10687;SDS011;5392;42.688;23.298;2022-10-16T13:45:27;0.95;;;0.60;;
10687;SDS011;5392;42.688;23.298;2022-10-16T13:48:09;7.18;;;2.35;;
10687;SDS011;5392;42.688;23.298;2022-10-16T13:50:38;1.40;;;0.70;;
10687;SDS011;5392;42.688;23.298;2022-10-16T13:53:13;0.50;;;0.50;;
10687;SDS011;5392;42.688;23.298;2022-10-16T13:55:39;1.27;;;0.50;;
10687;SDS011;5392;42.688;23.298;2022-10-16T13:58:13;0.57;;;0.40;;
10687;SDS011;5392;42.688;23.298;2022-10-16T14:00:40;0.85;;;0.40;;
10687;SDS011;5392;42.688;23.298;2022-10-16T14:03:12;2.28;;;0.40;;
10687;SDS011;5392;42.688;23.298;2022-10-16T14:05:44;0.50;;;0.50;;
10687;SDS011;5392;42.688;23.298;2022-10-16T14:08:12;1.33;;;0.45;;
10687;SDS011;5392;42.688;23.298;2022-10-16T14:10:38;3.30;;;0.50;;
10687;SDS011;5392;42.688;23.298;2022-10-16T14:13:06;1.63;;;0.40;;
10687;SDS011;5392;42.688;23.298;2022-10-16T14:15:34;1.05;;;0.40;;
10687;SDS011;5392;42.688;23.298;2022-10-16T14:18:01;0.50;;;0.40;;
10687;SDS011;5392;42.688;23.298;2022-10-16T14:20:32;0.40;;;0.40;;
10687;SDS011;5392;42.688;23.298;2022-10-16T14:23:42;0.90;;;0.40;;
10687;SDS011;5392;42.688;23.298;2022-10-16T14:25:49;0.40;;;0.40;;
10687;SDS011;5392;42.688;23.298;2022-10-16T14:28:17;2.88;;;0.40;;
10687;SDS011;5392;42.688;23.298;2022-10-16T14:35:59;2.08;;;0.32;;
10687;SDS011;5392;42.688;23.298;2022-10-16T14:38:26;0.40;;;0.40;;
10687;SDS011;5392;42.688;23.298;2022-10-16T14:40:52;0.40;;;0.40;;
10687;SDS011;5392;42.688;23.298;2022-10-16T14:43:24;1.60;;;0.40;;
10687;SDS011;5392;42.688;23.298;2022-10-16T14:45:53;0.40;;;0.40;;
10687;SDS011;5392;42.688;23.298;2022-10-16T14:48:20;0.50;;;0.47;;
10687;SDS011;5392;42.688;23.298;2022-10-16T14:50:46;1.40;;;0.50;;
10687;SDS011;5392;42.688;23.298;2022-10-16T14:53:13;0.50;;;0.50;;
10687;SDS011;5392;42.688;23.298;2022-10-16T14:55:40;0.75;;;0.47;;
10687;SDS011;5392;42.688;23.298;2022-10-16T14:58:17;1.38;;;0.50;;
10687;SDS011;5392;42.688;23.298;2022-10-16T15:00:45;0.95;;;0.63;;
10687;SDS011;5392;42.688;23.298;2022-10-16T15:03:12;0.47;;;0.43;;
10687;SDS011;5392;42.688;23.298;2022-10-16T15:05:38;0.88;;;0.40;;
10687;SDS011;5392;42.688;23.298;2022-10-16T15:08:05;0.77;;;0.50;;
10687;SDS011;5392;42.688;23.298;2022-10-16T15:10:33;1.13;;;0.50;;
10687;SDS011;5392;42.688;23.298;2022-10-16T15:13:01;2.13;;;0.50;;
10687;SDS011;5392;42.688;23.298;2022-10-16T15:15:38;0.90;;;0.40;;
10687;SDS011;5392;42.688;23.298;2022-10-16T15:18:07;0.52;;;0.40;;
10687;SDS011;5392;42.688;23.298;2022-10-16T15:20:35;0.63;;;0.50;;
10687;SDS011;5392;42.688;23.298;2022-10-16T15:23:02;1.70;;;0.50;;
10687;SDS011;5392;42.688;23.298;2022-10-16T15:25:31;0.93;;;0.40;;
10687;SDS011;5392;42.688;23.298;2022-10-16T15:27:59;0.50;;;0.50;;
10687;SDS011;5392;42.688;23.298;2022-10-16T15:30:26;0.47;;;0.40;;
10687;SDS011;5392;42.688;23.298;2022-10-16T15:32:53;0.85;;;0.50;;
10687;SDS011;5392;42.688;23.298;2022-10-16T15:35:19;0.75;;;0.50;;
10687;SDS011;5392;42.688;23.298;2022-10-16T15:37:46;1.48;;;0.55;;
10687;SDS011;5392;42.688;23.298;2022-10-16T15:40:13;0.60;;;0.60;;
10687;SDS011;5392;42.688;23.298;2022-10-16T15:42:40;0.57;;;0.57;;
10687;SDS011;5392;42.688;23.298;2022-10-16T15:45:07;0.70;;;0.60;;
10687;SDS011;5392;42.688;23.298;2022-10-16T15:47:34;1.67;;;0.60;;
10687;SDS011;5392;42.688;23.298;2022-10-16T15:50:01;1.48;;;0.90;;
10687;SDS011;5392;42.688;23.298;2022-10-16T15:52:27;1.15;;;0.93;;
10687;SDS011;5392;42.688;23.298;2022-10-16T15:54:55;1.65;;;0.70;;
10687;SDS011;5392;42.688;23.298;2022-10-16T15:57:21;1.08;;;1.00;;
10687;SDS011;5392;42.688;23.298;2022-10-16T15:59:49;2.95;;;0.90;;
10687;SDS011;5392;42.688;23.298;2022-10-16T16:02:15;1.38;;;0.77;;
10687;SDS011;5392;42.688;23.298;2022-10-16T16:04:42;1.27;;;0.70;;
10687;SDS011;5392;42.688;23.298;2022-10-16T16:07:10;2.25;;;1.08;;
10687;SDS011;5392;42.688;23.298;2022-10-16T16:09:36;2.47;;;0.90;;
10687;SDS011;5392;42.688;23.298;2022-10-16T16:12:03;3.75;;;1.42;;
10687;SDS011;5392;42.688;23.298;2022-10-16T16:14:30;3.53;;;1.23;;
10687;SDS011;5392;42.688;23.298;2022-10-16T16:16:57;6.90;;;1.45;;
10687;SDS011;5392;42.688;23.298;2022-10-16T16:19:23;6.13;;;1.52;;
10687;SDS011;5392;42.688;23.298;2022-10-16T16:21:50;1.73;;;1.08;;
10687;SDS011;5392;42.688;23.298;2022-10-16T16:24:16;2.28;;;1.00;;
10687;SDS011;5392;42.688;23.298;2022-10-16T16:26:43;4.45;;;0.90;;
10687;SDS011;5392;42.688;23.298;2022-10-16T16:29:13;3.22;;;1.20;;
10687;SDS011;5392;42.688;23.298;2022-10-16T16:31:40;2.97;;;0.88;;
10687;SDS011;5392;42.688;23.298;2022-10-16T16:34:06;2.50;;;1.27;;
10687;SDS011;5392;42.688;23.298;2022-10-16T16:36:33;6.30;;;1.20;;
10687;SDS011;5392;42.688;23.298;2022-10-16T16:39:00;3.33;;;1.13;;
10687;SDS011;5392;42.688;23.298;2022-10-16T16:41:27;4.35;;;1.00;;
10687;SDS011;5392;42.688;23.298;2022-10-16T16:43:54;5.60;;;0.98;;
10687;SDS011;5392;42.688;23.298;2022-10-16T16:46:21;3.90;;;1.70;;